McGehee, Arkansas
Current Conditions -  °F | °C
As of 4:53 PM on Tuesday 27 Jan 2015 (Local Time) from KLLQ Reporting Station
Clear Clear  
Wind Chill: 62°   Ceiling: Unl
Heat Index: 62°   Visibility: 10mi
Dew Point: 37°   Wind: 6mph
Humidity: 39%   Direction: 40°NE
Pressure: 30.12"   Gusts: NA
Location:  33.63°N, 91.39°W
Report Text: KLLQ 272253Z AUTO 04005KT 10SM CLR 17/03 A3012 RMK AO2 SLP200 T01670028
Loading
Personal Weather Stations






























Interactive Weather Map New forecast layout! Learn more

10-Day Weather Forecast

Advertisements
Track Severe Weather on mobile